sensor_id;sensor_type;location;lat;lon;timestamp;P1;durP1;ratioP1;P2;durP2;ratioP2
56860;SDS011;42744;51.094;3.490;2023-04-03T00:01:19;17.47;;;11.27;;
56860;SDS011;42744;51.094;3.490;2023-04-03T00:03:46;15.73;;;11.07;;
56860;SDS011;42744;51.094;3.490;2023-04-03T00:06:12;17.20;;;11.30;;
56860;SDS011;42744;51.094;3.490;2023-04-03T00:08:38;15.80;;;11.90;;
56860;SDS011;42744;51.094;3.490;2023-04-03T00:11:06;19.10;;;12.33;;
56860;SDS011;42744;51.094;3.490;2023-04-03T00:13:32;21.83;;;12.57;;
56860;SDS011;42744;51.094;3.490;2023-04-03T00:15:58;17.27;;;12.07;;
56860;SDS011;42744;51.094;3.490;2023-04-03T00:18:25;19.53;;;12.50;;
56860;SDS011;42744;51.094;3.490;2023-04-03T00:20:51;17.17;;;10.97;;
56860;SDS011;42744;51.094;3.490;2023-04-03T00:23:17;20.67;;;11.23;;
56860;SDS011;42744;51.094;3.490;2023-04-03T00:25:43;16.00;;;11.47;;
56860;SDS011;42744;51.094;3.490;2023-04-03T00:28:09;15.77;;;11.37;;
56860;SDS011;42744;51.094;3.490;2023-04-03T00:30:36;16.17;;;10.57;;
56860;SDS011;42744;51.094;3.490;2023-04-03T00:33:02;17.23;;;11.03;;
56860;SDS011;42744;51.094;3.490;2023-04-03T00:35:28;17.27;;;12.07;;
56860;SDS011;42744;51.094;3.490;2023-04-03T00:37:55;16.67;;;11.67;;
56860;SDS011;42744;51.094;3.490;2023-04-03T00:40:23;16.70;;;11.60;;
56860;SDS011;42744;51.094;3.490;2023-04-03T00:42:54;16.63;;;12.07;;
56860;SDS011;42744;51.094;3.490;2023-04-03T00:45:24;14.80;;;11.37;;
56860;SDS011;42744;51.094;3.490;2023-04-03T00:48:05;17.37;;;11.00;;
56860;SDS011;42744;51.094;3.490;2023-04-03T00:50:35;19.53;;;11.83;;
56860;SDS011;42744;51.094;3.490;2023-04-03T00:53:03;19.53;;;12.27;;
56860;SDS011;42744;51.094;3.490;2023-04-03T00:55:31;18.13;;;12.63;;
56860;SDS011;42744;51.094;3.490;2023-04-03T00:58:00;18.77;;;11.77;;
56860;SDS011;42744;51.094;3.490;2023-04-03T01:00:27;19.03;;;12.40;;
56860;SDS011;42744;51.094;3.490;2023-04-03T01:02:54;17.53;;;11.23;;
56860;SDS011;42744;51.094;3.490;2023-04-03T01:05:21;17.70;;;11.03;;
56860;SDS011;42744;51.094;3.490;2023-04-03T01:07:48;16.77;;;11.60;;
56860;SDS011;42744;51.094;3.490;2023-04-03T01:10:16;18.90;;;11.70;;
56860;SDS011;42744;51.094;3.490;2023-04-03T01:12:45;21.03;;;11.90;;
56860;SDS011;42744;51.094;3.490;2023-04-03T01:15:15;18.20;;;12.00;;
56860;SDS011;42744;51.094;3.490;2023-04-03T01:17:44;18.30;;;12.03;;
56860;SDS011;42744;51.094;3.490;2023-04-03T01:22:56;21.63;;;11.83;;
56860;SDS011;42744;51.094;3.490;2023-04-03T01:25:31;17.20;;;11.20;;
56860;SDS011;42744;51.094;3.490;2023-04-03T01:27:58;16.73;;;11.47;;
56860;SDS011;42744;51.094;3.490;2023-04-03T01:30:26;14.83;;;10.97;;
56860;SDS011;42744;51.094;3.490;2023-04-03T01:32:57;17.60;;;11.33;;
56860;SDS011;42744;51.094;3.490;2023-04-03T01:35:23;16.07;;;11.20;;
56860;SDS011;42744;51.094;3.490;2023-04-03T01:37:50;15.53;;;10.43;;
56860;SDS011;42744;51.094;3.490;2023-04-03T01:40:17;15.20;;;10.70;;
56860;SDS011;42744;51.094;3.490;2023-04-03T01:42:44;15.40;;;10.87;;
56860;SDS011;42744;51.094;3.490;2023-04-03T01:45:11;15.77;;;10.50;;
56860;SDS011;42744;51.094;3.490;2023-04-03T01:47:37;15.30;;;11.07;;
56860;SDS011;42744;51.094;3.490;2023-04-03T01:50:04;18.73;;;10.60;;
56860;SDS011;42744;51.094;3.490;2023-04-03T01:52:30;16.53;;;9.83;;
56860;SDS011;42744;51.094;3.490;2023-04-03T01:54:57;17.03;;;11.27;;
56860;SDS011;42744;51.094;3.490;2023-04-03T01:57:23;15.03;;;11.10;;
56860;SDS011;42744;51.094;3.490;2023-04-03T01:59:49;15.57;;;10.67;;
56860;SDS011;42744;51.094;3.490;2023-04-03T02:02:16;15.33;;;10.63;;
56860;SDS011;42744;51.094;3.490;2023-04-03T02:04:43;15.63;;;10.73;;
56860;SDS011;42744;51.094;3.490;2023-04-03T02:07:09;15.57;;;10.40;;
56860;SDS011;42744;51.094;3.490;2023-04-03T02:09:35;22.97;;;11.40;;
56860;SDS011;42744;51.094;3.490;2023-04-03T02:12:01;15.07;;;10.33;;
56860;SDS011;42744;51.094;3.490;2023-04-03T02:14:29;13.17;;;10.17;;
56860;SDS011;42744;51.094;3.490;2023-04-03T02:16:55;13.80;;;9.30;;
56860;SDS011;42744;51.094;3.490;2023-04-03T02:19:21;13.93;;;10.20;;
56860;SDS011;42744;51.094;3.490;2023-04-03T02:21:48;13.13;;;9.97;;
56860;SDS011;42744;51.094;3.490;2023-04-03T02:24:14;15.80;;;10.17;;
56860;SDS011;42744;51.094;3.490;2023-04-03T02:26:41;14.67;;;10.00;;
56860;SDS011;42744;51.094;3.490;2023-04-03T02:29:07;14.00;;;10.20;;
56860;SDS011;42744;51.094;3.490;2023-04-03T02:31:34;11.63;;;9.20;;
56860;SDS011;42744;51.094;3.490;2023-04-03T02:34:00;13.33;;;9.83;;
56860;SDS011;42744;51.094;3.490;2023-04-03T02:36:26;13.50;;;9.73;;
56860;SDS011;42744;51.094;3.490;2023-04-03T02:38:53;16.23;;;10.73;;
56860;SDS011;42744;51.094;3.490;2023-04-03T02:41:19;13.80;;;10.30;;
56860;SDS011;42744;51.094;3.490;2023-04-03T02:43:46;14.63;;;9.40;;
56860;SDS011;42744;51.094;3.490;2023-04-03T02:46:12;17.10;;;9.83;;
56860;SDS011;42744;51.094;3.490;2023-04-03T02:48:41;12.20;;;9.67;;
56860;SDS011;42744;51.094;3.490;2023-04-03T02:51:07;18.60;;;11.20;;
56860;SDS011;42744;51.094;3.490;2023-04-03T02:53:33;14.57;;;10.30;;
56860;SDS011;42744;51.094;3.490;2023-04-03T02:56:01;13.00;;;9.17;;
56860;SDS011;42744;51.094;3.490;2023-04-03T02:58:27;13.70;;;9.27;;
56860;SDS011;42744;51.094;3.490;2023-04-03T03:00:54;12.07;;;9.20;;
56860;SDS011;42744;51.094;3.490;2023-04-03T03:03:20;12.37;;;9.40;;
56860;SDS011;42744;51.094;3.490;2023-04-03T03:05:46;17.57;;;9.57;;
56860;SDS011;42744;51.094;3.490;2023-04-03T03:08:13;13.37;;;9.03;;
56860;SDS011;42744;51.094;3.490;2023-04-03T03:10:39;13.13;;;8.60;;
56860;SDS011;42744;51.094;3.490;2023-04-03T03:13:06;13.10;;;8.73;;
56860;SDS011;42744;51.094;3.490;2023-04-03T03:15:32;12.07;;;9.27;;
56860;SDS011;42744;51.094;3.490;2023-04-03T03:17:58;11.80;;;7.97;;
56860;SDS011;42744;51.094;3.490;2023-04-03T03:20:25;10.70;;;9.00;;
56860;SDS011;42744;51.094;3.490;2023-04-03T03:22:51;14.20;;;8.83;;
56860;SDS011;42744;51.094;3.490;2023-04-03T03:25:17;12.67;;;8.20;;
56860;SDS011;42744;51.094;3.490;2023-04-03T03:27:43;12.33;;;8.90;;
56860;SDS011;42744;51.094;3.490;2023-04-03T03:30:09;11.53;;;8.60;;
56860;SDS011;42744;51.094;3.490;2023-04-03T03:32:36;11.83;;;8.80;;
56860;SDS011;42744;51.094;3.490;2023-04-03T03:35:02;14.53;;;9.50;;
56860;SDS011;42744;51.094;3.490;2023-04-03T03:37:28;12.20;;;8.90;;
56860;SDS011;42744;51.094;3.490;2023-04-03T03:39:54;12.63;;;9.57;;
56860;SDS011;42744;51.094;3.490;2023-04-03T03:42:20;15.60;;;9.17;;
56860;SDS011;42744;51.094;3.490;2023-04-03T03:44:48;15.07;;;8.87;;
56860;SDS011;42744;51.094;3.490;2023-04-03T03:47:14;11.53;;;8.77;;
56860;SDS011;42744;51.094;3.490;2023-04-03T03:49:41;14.20;;;9.50;;
56860;SDS011;42744;51.094;3.490;2023-04-03T03:52:07;18.03;;;9.50;;
56860;SDS011;42744;51.094;3.490;2023-04-03T03:54:36;13.83;;;9.30;;
56860;SDS011;42744;51.094;3.490;2023-04-03T03:57:02;14.07;;;9.67;;
56860;SDS011;42744;51.094;3.490;2023-04-03T03:59:29;13.93;;;9.40;;
56860;SDS011;42744;51.094;3.490;2023-04-03T04:01:55;16.37;;;10.17;;
56860;SDS011;42744;51.094;3.490;2023-04-03T04:04:22;12.60;;;9.73;;
56860;SDS011;42744;51.094;3.490;2023-04-03T04:06:48;13.70;;;10.10;;
56860;SDS011;42744;51.094;3.490;2023-04-03T04:09:14;14.23;;;10.00;;
56860;SDS011;42744;51.094;3.490;2023-04-03T04:11:41;13.17;;;9.33;;
56860;SDS011;42744;51.094;3.490;2023-04-03T04:14:08;14.57;;;9.83;;
56860;SDS011;42744;51.094;3.490;2023-04-03T04:16:36;13.43;;;9.63;;
56860;SDS011;42744;51.094;3.490;2023-04-03T04:19:03;13.90;;;8.83;;
56860;SDS011;42744;51.094;3.490;2023-04-03T04:21:30;11.80;;;9.23;;
56860;SDS011;42744;51.094;3.490;2023-04-03T04:23:56;15.53;;;10.40;;
56860;SDS011;42744;51.094;3.490;2023-04-03T04:26:23;13.90;;;9.87;;
56860;SDS011;42744;51.094;3.490;2023-04-03T04:28:50;16.97;;;10.23;;
56860;SDS011;42744;51.094;3.490;2023-04-03T04:31:16;18.20;;;9.00;;
56860;SDS011;42744;51.094;3.490;2023-04-03T04:33:42;14.40;;;10.57;;
56860;SDS011;42744;51.094;3.490;2023-04-03T04:36:09;13.00;;;9.30;;
56860;SDS011;42744;51.094;3.490;2023-04-03T04:38:36;12.23;;;9.23;;
56860;SDS011;42744;51.094;3.490;2023-04-03T04:41:04;14.57;;;10.13;;
56860;SDS011;42744;51.094;3.490;2023-04-03T04:43:30;19.00;;;10.37;;
56860;SDS011;42744;51.094;3.490;2023-04-03T04:46:03;16.93;;;10.13;;
56860;SDS011;42744;51.094;3.490;2023-04-03T04:48:31;14.43;;;10.20;;
56860;SDS011;42744;51.094;3.490;2023-04-03T04:50:58;13.53;;;9.83;;
56860;SDS011;42744;51.094;3.490;2023-04-03T04:53:25;15.47;;;10.80;;
56860;SDS011;42744;51.094;3.490;2023-04-03T04:55:51;15.40;;;10.70;;
56860;SDS011;42744;51.094;3.490;2023-04-03T04:58:18;16.63;;;10.87;;
56860;SDS011;42744;51.094;3.490;2023-04-03T05:00:45;15.57;;;9.87;;
56860;SDS011;42744;51.094;3.490;2023-04-03T05:03:11;11.73;;;9.00;;
56860;SDS011;42744;51.094;3.490;2023-04-03T05:05:38;14.40;;;9.70;;
56860;SDS011;42744;51.094;3.490;2023-04-03T05:08:05;15.17;;;9.87;;
56860;SDS011;42744;51.094;3.490;2023-04-03T05:10:32;14.80;;;10.40;;
56860;SDS011;42744;51.094;3.490;2023-04-03T05:12:58;14.03;;;9.53;;
56860;SDS011;42744;51.094;3.490;2023-04-03T05:15:24;13.00;;;9.80;;
56860;SDS011;42744;51.094;3.490;2023-04-03T05:17:51;13.63;;;9.90;;
56860;SDS011;42744;51.094;3.490;2023-04-03T05:20:17;14.30;;;9.57;;
56860;SDS011;42744;51.094;3.490;2023-04-03T05:22:43;14.20;;;9.97;;
56860;SDS011;42744;51.094;3.490;2023-04-03T05:25:10;13.90;;;9.77;;
56860;SDS011;42744;51.094;3.490;2023-04-03T05:27:37;14.73;;;9.67;;
56860;SDS011;42744;51.094;3.490;2023-04-03T05:30:03;13.77;;;10.03;;
56860;SDS011;42744;51.094;3.490;2023-04-03T05:32:30;15.53;;;11.17;;
56860;SDS011;42744;51.094;3.490;2023-04-03T05:34:58;16.53;;;10.57;;
56860;SDS011;42744;51.094;3.490;2023-04-03T05:37:24;18.23;;;11.03;;
56860;SDS011;42744;51.094;3.490;2023-04-03T05:39:51;15.03;;;10.83;;
56860;SDS011;42744;51.094;3.490;2023-04-03T05:42:17;16.87;;;11.10;;
56860;SDS011;42744;51.094;3.490;2023-04-03T05:44:44;14.70;;;11.10;;
56860;SDS011;42744;51.094;3.490;2023-04-03T05:47:13;14.80;;;11.43;;
56860;SDS011;42744;51.094;3.490;2023-04-03T05:49:39;16.77;;;11.17;;
56860;SDS011;42744;51.094;3.490;2023-04-03T05:52:10;17.33;;;11.20;;
56860;SDS011;42744;51.094;3.490;2023-04-03T05:54:59;19.23;;;12.47;;
56860;SDS011;42744;51.094;3.490;2023-04-03T05:57:25;19.57;;;12.73;;
56860;SDS011;42744;51.094;3.490;2023-04-03T05:59:52;19.80;;;12.40;;
56860;SDS011;42744;51.094;3.490;2023-04-03T06:02:19;18.27;;;12.63;;
56860;SDS011;42744;51.094;3.490;2023-04-03T06:04:47;20.67;;;12.27;;
56860;SDS011;42744;51.094;3.490;2023-04-03T06:07:18;15.63;;;11.83;;
56860;SDS011;42744;51.094;3.490;2023-04-03T06:09:49;19.13;;;11.37;;
56860;SDS011;42744;51.094;3.490;2023-04-03T06:12:16;21.30;;;12.93;;
56860;SDS011;42744;51.094;3.490;2023-04-03T06:14:43;18.43;;;12.50;;
56860;SDS011;42744;51.094;3.490;2023-04-03T06:17:09;16.60;;;11.07;;
56860;SDS011;42744;51.094;3.490;2023-04-03T06:19:36;20.87;;;12.17;;
56860;SDS011;42744;51.094;3.490;2023-04-03T06:22:02;16.57;;;12.10;;
56860;SDS011;42744;51.094;3.490;2023-04-03T06:24:28;19.07;;;13.10;;
56860;SDS011;42744;51.094;3.490;2023-04-03T06:26:55;18.13;;;12.83;;
56860;SDS011;42744;51.094;3.490;2023-04-03T06:29:22;18.57;;;12.97;;
56860;SDS011;42744;51.094;3.490;2023-04-03T06:31:49;18.97;;;12.90;;
56860;SDS011;42744;51.094;3.490;2023-04-03T06:34:16;19.57;;;12.83;;
56860;SDS011;42744;51.094;3.490;2023-04-03T06:36:43;20.03;;;12.83;;
56860;SDS011;42744;51.094;3.490;2023-04-03T06:39:15;20.23;;;13.53;;
56860;SDS011;42744;51.094;3.490;2023-04-03T06:41:46;19.97;;;14.07;;
56860;SDS011;42744;51.094;3.490;2023-04-03T06:44:12;19.17;;;13.60;;
56860;SDS011;42744;51.094;3.490;2023-04-03T06:46:41;20.77;;;14.17;;
56860;SDS011;42744;51.094;3.490;2023-04-03T06:49:08;19.40;;;13.67;;
56860;SDS011;42744;51.094;3.490;2023-04-03T06:51:35;25.13;;;15.60;;
56860;SDS011;42744;51.094;3.490;2023-04-03T06:54:02;19.10;;;13.17;;
56860;SDS011;42744;51.094;3.490;2023-04-03T06:56:29;24.53;;;14.03;;
56860;SDS011;42744;51.094;3.490;2023-04-03T06:58:56;18.00;;;13.93;;
56860;SDS011;42744;51.094;3.490;2023-04-03T07:01:24;19.23;;;13.43;;
56860;SDS011;42744;51.094;3.490;2023-04-03T07:03:52;21.97;;;14.80;;
56860;SDS011;42744;51.094;3.490;2023-04-03T07:06:18;23.17;;;14.63;;
56860;SDS011;42744;51.094;3.490;2023-04-03T07:08:45;25.53;;;14.23;;
56860;SDS011;42744;51.094;3.490;2023-04-03T07:11:13;20.20;;;14.20;;
56860;SDS011;42744;51.094;3.490;2023-04-03T07:13:39;22.93;;;15.27;;
56860;SDS011;42744;51.094;3.490;2023-04-03T07:16:06;20.90;;;14.27;;
56860;SDS011;42744;51.094;3.490;2023-04-03T07:18:33;23.23;;;15.40;;
56860;SDS011;42744;51.094;3.490;2023-04-03T07:20:59;28.50;;;15.07;;
56860;SDS011;42744;51.094;3.490;2023-04-03T07:23:26;22.20;;;14.87;;
56860;SDS011;42744;51.094;3.490;2023-04-03T07:25:52;22.30;;;14.00;;
56860;SDS011;42744;51.094;3.490;2023-04-03T07:28:19;21.23;;;13.90;;
56860;SDS011;42744;51.094;3.490;2023-04-03T07:30:52;24.03;;;14.77;;
56860;SDS011;42744;51.094;3.490;2023-04-03T07:33:21;20.47;;;13.87;;
56860;SDS011;42744;51.094;3.490;2023-04-03T07:35:48;19.00;;;12.37;;
56860;SDS011;42744;51.094;3.490;2023-04-03T07:38:14;19.50;;;13.80;;
56860;SDS011;42744;51.094;3.490;2023-04-03T07:40:45;23.13;;;14.97;;
56860;SDS011;42744;51.094;3.490;2023-04-03T07:43:13;22.70;;;13.77;;
56860;SDS011;42744;51.094;3.490;2023-04-03T07:45:39;18.33;;;12.77;;
56860;SDS011;42744;51.094;3.490;2023-04-03T07:48:05;17.07;;;12.67;;
56860;SDS011;42744;51.094;3.490;2023-04-03T07:50:32;15.40;;;11.97;;
56860;SDS011;42744;51.094;3.490;2023-04-03T07:52:58;15.37;;;11.57;;
56860;SDS011;42744;51.094;3.490;2023-04-03T07:55:25;15.43;;;11.40;;
56860;SDS011;42744;51.094;3.490;2023-04-03T07:57:51;12.20;;;9.67;;
56860;SDS011;42744;51.094;3.490;2023-04-03T08:00:17;12.40;;;8.63;;
56860;SDS011;42744;51.094;3.490;2023-04-03T08:02:45;18.70;;;10.33;;
56860;SDS011;42744;51.094;3.490;2023-04-03T08:05:16;12.73;;;9.30;;
56860;SDS011;42744;51.094;3.490;2023-04-03T08:07:46;13.80;;;8.87;;
56860;SDS011;42744;51.094;3.490;2023-04-03T08:10:13;13.03;;;9.70;;
56860;SDS011;42744;51.094;3.490;2023-04-03T08:12:40;14.20;;;9.43;;
56860;SDS011;42744;51.094;3.490;2023-04-03T08:15:07;14.80;;;7.90;;
56860;SDS011;42744;51.094;3.490;2023-04-03T08:17:34;14.30;;;8.57;;
56860;SDS011;42744;51.094;3.490;2023-04-03T08:20:00;9.90;;;8.37;;
56860;SDS011;42744;51.094;3.490;2023-04-03T08:22:27;11.30;;;8.40;;
56860;SDS011;42744;51.094;3.490;2023-04-03T08:24:52;11.20;;;8.63;;
56860;SDS011;42744;51.094;3.490;2023-04-03T08:27:18;13.10;;;8.67;;
56860;SDS011;42744;51.094;3.490;2023-04-03T08:29:45;12.17;;;7.83;;
56860;SDS011;42744;51.094;3.490;2023-04-03T08:32:11;13.53;;;9.17;;
56860;SDS011;42744;51.094;3.490;2023-04-03T08:34:36;13.10;;;8.50;;
56860;SDS011;42744;51.094;3.490;2023-04-03T08:37:05;16.67;;;12.20;;
56860;SDS011;42744;51.094;3.490;2023-04-03T08:39:31;20.40;;;14.57;;
56860;SDS011;42744;51.094;3.490;2023-04-03T08:41:57;19.13;;;12.80;;
56860;SDS011;42744;51.094;3.490;2023-04-03T08:49:56;16.83;;;9.50;;
56860;SDS011;42744;51.094;3.490;2023-04-03T08:52:41;14.63;;;9.20;;
56860;SDS011;42744;51.094;3.490;2023-04-03T08:55:23;12.60;;;8.80;;
56860;SDS011;42744;51.094;3.490;2023-04-03T08:57:51;28.60;;;15.57;;
56860;SDS011;42744;51.094;3.490;2023-04-03T09:00:26;12.93;;;11.20;;
56860;SDS011;42744;51.094;3.490;2023-04-03T09:02:56;16.33;;;9.90;;
56860;SDS011;42744;51.094;3.490;2023-04-03T09:08:22;19.13;;;12.67;;
56860;SDS011;42744;51.094;3.490;2023-04-03T09:10:56;18.30;;;11.03;;
56860;SDS011;42744;51.094;3.490;2023-04-03T09:13:54;13.83;;;11.17;;
56860;SDS011;42744;51.094;3.490;2023-04-03T09:19:08;12.70;;;7.53;;
56860;SDS011;42744;51.094;3.490;2023-04-03T09:21:39;12.17;;;8.33;;
56860;SDS011;42744;51.094;3.490;2023-04-03T09:24:10;14.63;;;8.43;;
56860;SDS011;42744;51.094;3.490;2023-04-03T09:26:44;11.70;;;6.20;;
56860;SDS011;42744;51.094;3.490;2023-04-03T09:29:17;13.97;;;7.73;;
56860;SDS011;42744;51.094;3.490;2023-04-03T09:31:46;11.37;;;6.50;;
56860;SDS011;42744;51.094;3.490;2023-04-03T09:36:53;11.97;;;8.27;;
56860;SDS011;42744;51.094;3.490;2023-04-03T09:39:22;12.13;;;5.83;;
56860;SDS011;42744;51.094;3.490;2023-04-03T09:42:13;10.60;;;6.27;;
56860;SDS011;42744;51.094;3.490;2023-04-03T09:44:48;10.60;;;6.63;;
56860;SDS011;42744;51.094;3.490;2023-04-03T09:47:30;6.37;;;3.93;;
56860;SDS011;42744;51.094;3.490;2023-04-03T09:52:44;7.90;;;3.90;;
56860;SDS011;42744;51.094;3.490;2023-04-03T09:55:16;4.33;;;2.70;;
56860;SDS011;42744;51.094;3.490;2023-04-03T09:57:43;6.60;;;3.20;;
56860;SDS011;42744;51.094;3.490;2023-04-03T10:00:33;6.13;;;3.40;;
56860;SDS011;42744;51.094;3.490;2023-04-03T10:03:03;6.20;;;2.40;;
56860;SDS011;42744;51.094;3.490;2023-04-03T10:05:32;6.73;;;3.63;;
56860;SDS011;42744;51.094;3.490;2023-04-03T10:08:23;5.30;;;3.03;;
56860;SDS011;42744;51.094;3.490;2023-04-03T10:16:26;6.87;;;3.50;;
56860;SDS011;42744;51.094;3.490;2023-04-03T10:21:40;7.57;;;3.50;;
56860;SDS011;42744;51.094;3.490;2023-04-03T10:24:23;8.53;;;3.10;;
56860;SDS011;42744;51.094;3.490;2023-04-03T10:26:58;5.30;;;3.40;;
56860;SDS011;42744;51.094;3.490;2023-04-03T10:35:00;7.73;;;3.50;;
56860;SDS011;42744;51.094;3.490;2023-04-03T10:37:58;10.67;;;3.93;;
56860;SDS011;42744;51.094;3.490;2023-04-03T10:40:35;5.43;;;2.60;;
56860;SDS011;42744;51.094;3.490;2023-04-03T10:43:06;6.70;;;3.50;;
56860;SDS011;42744;51.094;3.490;2023-04-03T10:45:47;5.33;;;3.13;;
56860;SDS011;42744;51.094;3.490;2023-04-03T11:02:07;4.93;;;2.40;;
56860;SDS011;42744;51.094;3.490;2023-04-03T11:04:53;6.03;;;2.83;;
56860;SDS011;42744;51.094;3.490;2023-04-03T11:07:37;5.07;;;2.97;;
56860;SDS011;42744;51.094;3.490;2023-04-03T11:10:10;5.27;;;2.80;;
56860;SDS011;42744;51.094;3.490;2023-04-03T11:12:53;4.47;;;2.37;;
56860;SDS011;42744;51.094;3.490;2023-04-03T11:15:37;5.73;;;3.03;;
56860;SDS011;42744;51.094;3.490;2023-04-03T11:18:04;4.50;;;1.77;;
56860;SDS011;42744;51.094;3.490;2023-04-03T11:20:36;4.20;;;2.13;;
56860;SDS011;42744;51.094;3.490;2023-04-03T11:23:06;22.73;;;7.00;;
56860;SDS011;42744;51.094;3.490;2023-04-03T11:25:44;5.07;;;2.40;;
56860;SDS011;42744;51.094;3.490;2023-04-03T11:28:15;17.37;;;5.87;;
56860;SDS011;42744;51.094;3.490;2023-04-03T11:37:25;9.47;;;3.70;;
56860;SDS011;42744;51.094;3.490;2023-04-03T11:39:31;8.43;;;3.57;;
56860;SDS011;42744;51.094;3.490;2023-04-03T11:47:55;3.90;;;2.03;;
56860;SDS011;42744;51.094;3.490;2023-04-03T12:13:40;3.67;;;1.50;;
56860;SDS011;42744;51.094;3.490;2023-04-03T12:16:21;5.27;;;1.80;;
56860;SDS011;42744;51.094;3.490;2023-04-03T12:24:33;4.90;;;2.43;;
56860;SDS011;42744;51.094;3.490;2023-04-03T12:37:48;5.17;;;2.60;;
56860;SDS011;42744;51.094;3.490;2023-04-03T12:51:18;4.60;;;2.00;;
56860;SDS011;42744;51.094;3.490;2023-04-03T12:53:56;6.53;;;2.47;;
56860;SDS011;42744;51.094;3.490;2023-04-03T12:56:31;6.67;;;2.77;;
56860;SDS011;42744;51.094;3.490;2023-04-03T12:59:12;6.43;;;2.30;;
56860;SDS011;42744;51.094;3.490;2023-04-03T13:01:44;4.40;;;1.90;;
56860;SDS011;42744;51.094;3.490;2023-04-03T13:04:20;4.83;;;1.60;;
56860;SDS011;42744;51.094;3.490;2023-04-03T13:06:46;3.13;;;2.10;;
56860;SDS011;42744;51.094;3.490;2023-04-03T13:09:20;4.43;;;2.13;;
56860;SDS011;42744;51.094;3.490;2023-04-03T13:11:52;3.40;;;1.93;;
56860;SDS011;42744;51.094;3.490;2023-04-03T13:14:25;4.23;;;1.80;;
56860;SDS011;42744;51.094;3.490;2023-04-03T13:16:58;3.90;;;1.80;;
56860;SDS011;42744;51.094;3.490;2023-04-03T13:19:28;3.83;;;1.87;;
56860;SDS011;42744;51.094;3.490;2023-04-03T13:22:02;5.13;;;1.80;;
56860;SDS011;42744;51.094;3.490;2023-04-03T13:24:35;5.37;;;2.03;;
56860;SDS011;42744;51.094;3.490;2023-04-03T13:27:06;3.33;;;2.07;;
56860;SDS011;42744;51.094;3.490;2023-04-03T13:29:33;4.47;;;1.90;;
56860;SDS011;42744;51.094;3.490;2023-04-03T13:32:02;4.53;;;2.10;;
56860;SDS011;42744;51.094;3.490;2023-04-03T13:34:42;4.27;;;2.33;;
56860;SDS011;42744;51.094;3.490;2023-04-03T13:37:19;5.57;;;2.30;;
56860;SDS011;42744;51.094;3.490;2023-04-03T13:40:10;3.40;;;2.10;;
56860;SDS011;42744;51.094;3.490;2023-04-03T13:42:38;3.13;;;1.63;;
56860;SDS011;42744;51.094;3.490;2023-04-03T13:45:19;3.53;;;1.53;;
56860;SDS011;42744;51.094;3.490;2023-04-03T13:47:46;4.57;;;1.70;;
56860;SDS011;42744;51.094;3.490;2023-04-03T13:50:16;3.33;;;1.90;;
56860;SDS011;42744;51.094;3.490;2023-04-03T13:52:52;4.23;;;1.87;;
56860;SDS011;42744;51.094;3.490;2023-04-03T13:55:28;3.67;;;1.80;;
56860;SDS011;42744;51.094;3.490;2023-04-03T13:57:59;3.73;;;1.53;;
56860;SDS011;42744;51.094;3.490;2023-04-03T14:05:56;4.07;;;1.97;;
56860;SDS011;42744;51.094;3.490;2023-04-03T14:08:22;6.43;;;2.03;;
56860;SDS011;42744;51.094;3.490;2023-04-03T14:10:49;3.30;;;1.73;;
56860;SDS011;42744;51.094;3.490;2023-04-03T14:13:17;3.50;;;1.70;;
56860;SDS011;42744;51.094;3.490;2023-04-03T14:15:46;5.03;;;1.80;;
56860;SDS011;42744;51.094;3.490;2023-04-03T14:18:15;2.50;;;1.30;;
56860;SDS011;42744;51.094;3.490;2023-04-03T14:20:43;4.33;;;2.30;;
56860;SDS011;42744;51.094;3.490;2023-04-03T14:23:10;3.57;;;1.60;;
56860;SDS011;42744;51.094;3.490;2023-04-03T14:25:36;4.47;;;1.63;;
56860;SDS011;42744;51.094;3.490;2023-04-03T14:30:59;4.63;;;1.73;;
56860;SDS011;42744;51.094;3.490;2023-04-03T14:33:25;3.97;;;1.60;;
56860;SDS011;42744;51.094;3.490;2023-04-03T14:35:53;2.60;;;1.50;;
56860;SDS011;42744;51.094;3.490;2023-04-03T14:38:26;2.63;;;1.30;;
56860;SDS011;42744;51.094;3.490;2023-04-03T14:40:55;3.00;;;1.77;;
56860;SDS011;42744;51.094;3.490;2023-04-03T14:43:22;1.90;;;1.20;;
56860;SDS011;42744;51.094;3.490;2023-04-03T14:45:48;2.10;;;1.40;;
56860;SDS011;42744;51.094;3.490;2023-04-03T14:48:16;3.70;;;1.80;;
56860;SDS011;42744;51.094;3.490;2023-04-03T14:50:46;7.37;;;1.77;;
56860;SDS011;42744;51.094;3.490;2023-04-03T14:53:13;2.93;;;1.60;;
56860;SDS011;42744;51.094;3.490;2023-04-03T14:55:44;4.37;;;1.63;;
56860;SDS011;42744;51.094;3.490;2023-04-03T14:58:12;3.10;;;1.70;;
56860;SDS011;42744;51.094;3.490;2023-04-03T15:00:40;2.20;;;1.17;;
56860;SDS011;42744;51.094;3.490;2023-04-03T15:03:09;5.30;;;1.50;;
56860;SDS011;42744;51.094;3.490;2023-04-03T15:05:40;5.53;;;2.00;;
56860;SDS011;42744;51.094;3.490;2023-04-03T15:08:08;2.43;;;1.57;;
56860;SDS011;42744;51.094;3.490;2023-04-03T15:10:44;1.80;;;1.30;;
56860;SDS011;42744;51.094;3.490;2023-04-03T15:13:10;2.97;;;1.40;;
56860;SDS011;42744;51.094;3.490;2023-04-03T15:15:38;7.23;;;1.80;;
56860;SDS011;42744;51.094;3.490;2023-04-03T15:18:05;5.83;;;1.70;;
56860;SDS011;42744;51.094;3.490;2023-04-03T15:20:31;3.10;;;1.20;;
56860;SDS011;42744;51.094;3.490;2023-04-03T15:22:59;2.93;;;1.40;;
56860;SDS011;42744;51.094;3.490;2023-04-03T15:25:26;2.90;;;1.60;;
56860;SDS011;42744;51.094;3.490;2023-04-03T15:27:56;4.13;;;1.87;;
56860;SDS011;42744;51.094;3.490;2023-04-03T15:30:22;4.30;;;1.73;;
56860;SDS011;42744;51.094;3.490;2023-04-03T15:32:49;2.70;;;1.40;;
56860;SDS011;42744;51.094;3.490;2023-04-03T15:35:16;2.33;;;1.70;;
56860;SDS011;42744;51.094;3.490;2023-04-03T15:37:42;3.57;;;1.40;;
56860;SDS011;42744;51.094;3.490;2023-04-03T15:40:09;2.53;;;1.33;;
56860;SDS011;42744;51.094;3.490;2023-04-03T15:42:35;2.80;;;1.47;;
56860;SDS011;42744;51.094;3.490;2023-04-03T15:45:01;2.13;;;1.40;;
56860;SDS011;42744;51.094;3.490;2023-04-03T15:47:28;3.13;;;1.63;;
56860;SDS011;42744;51.094;3.490;2023-04-03T15:49:54;3.87;;;1.40;;
56860;SDS011;42744;51.094;3.490;2023-04-03T15:52:21;3.83;;;1.73;;
56860;SDS011;42744;51.094;3.490;2023-04-03T15:54:47;3.90;;;1.63;;
56860;SDS011;42744;51.094;3.490;2023-04-03T15:57:13;2.90;;;1.30;;
56860;SDS011;42744;51.094;3.490;2023-04-03T15:59:39;2.73;;;1.33;;
56860;SDS011;42744;51.094;3.490;2023-04-03T16:02:06;2.50;;;2.00;;
56860;SDS011;42744;51.094;3.490;2023-04-03T16:04:36;2.30;;;1.30;;
56860;SDS011;42744;51.094;3.490;2023-04-03T16:07:03;4.03;;;1.90;;
56860;SDS011;42744;51.094;3.490;2023-04-03T16:09:30;3.07;;;1.30;;
56860;SDS011;42744;51.094;3.490;2023-04-03T16:11:58;2.97;;;1.60;;
56860;SDS011;42744;51.094;3.490;2023-04-03T16:14:25;1.87;;;1.10;;
56860;SDS011;42744;51.094;3.490;2023-04-03T16:16:53;5.00;;;1.10;;
56860;SDS011;42744;51.094;3.490;2023-04-03T16:19:19;2.87;;;1.23;;
56860;SDS011;42744;51.094;3.490;2023-04-03T16:21:45;2.20;;;1.10;;
56860;SDS011;42744;51.094;3.490;2023-04-03T16:24:12;1.37;;;0.90;;
56860;SDS011;42744;51.094;3.490;2023-04-03T16:26:38;2.57;;;1.10;;
56860;SDS011;42744;51.094;3.490;2023-04-03T16:29:04;1.60;;;1.20;;
56860;SDS011;42744;51.094;3.490;2023-04-03T16:31:31;2.07;;;1.03;;
56860;SDS011;42744;51.094;3.490;2023-04-03T16:33:58;2.17;;;1.10;;
56860;SDS011;42744;51.094;3.490;2023-04-03T16:36:26;2.33;;;1.00;;
56860;SDS011;42744;51.094;3.490;2023-04-03T16:38:52;3.93;;;0.80;;
56860;SDS011;42744;51.094;3.490;2023-04-03T16:41:18;1.20;;;0.80;;